Time;durP1;ratioP1;P1;durP2;ratioP2;P2;SDS_P1;SDS_P2;PMS_P1;PMS_P2;Temp;Humidity;BMP_temperature;BMP_pressure;BME280_temperature;BME280_humidity;BME280_pressure;Samples;Min_cycle;Max_cycle;Signal;HPM_P1;HPM_P2
2022/11/17 00:01:22;;;;;;;;;;;8.20;99.90;;;;;;5093244;28;19952;-68
2022/11/17 00:03:48;;;;;;;;;;;8.20;99.90;;;;;;5065178;28;19983;-68
2022/11/17 00:06:14;;;;;;;;;;;8.30;99.90;;;;;;5084184;28;19924;-68
2022/11/17 00:08:39;;;;;;;;;;;8.20;99.90;;;;;;5063495;28;20279;-68
2022/11/17 00:11:05;;;;;;;;;;;8.20;99.90;;;;;;5063555;28;19943;-68
2022/11/17 00:16:15;;;;;;;;;;;8.20;99.90;;;;;;5062083;28;19944;-68
2022/11/17 00:21:27;;;;;;;;;;;8.30;99.90;;;;;;5066014;28;19925;-68
2022/11/17 00:23:53;;;;;;;;;;;8.30;99.90;;;;;;5057846;22;20400;-67
2022/11/17 00:26:21;;;;;;;;;;;8.30;99.90;;;;;;5018785;28;20020;-67
2022/11/17 00:28:50;;;;;;;;;;;8.30;99.90;;;;;;5031885;28;19922;-67
2022/11/17 00:34:05;;;;;;;;;;;8.20;99.90;;;;;;5022773;28;19932;-67
2022/11/17 00:36:32;;;;;;;;;;;8.20;99.90;;;;;;5025357;28;19921;-67
2022/11/17 00:38:58;;;;;;;;;;;8.30;99.90;;;;;;5020838;28;20023;-67
2022/11/17 00:41:23;;;;;;;;;;;8.30;99.90;;;;;;5018733;28;20003;-67
2022/11/17 00:43:49;;;;;;;;;;;8.30;99.90;;;;;;5030108;28;19974;-66
2022/11/17 00:46:14;;;;;;;;;;;8.20;99.90;;;;;;5043329;28;19925;-68
2022/11/17 00:48:39;;;;;;;;;;;8.20;99.90;;;;;;5023984;28;19927;-67
2022/11/17 00:51:05;;;;;;;;;;;8.20;99.90;;;;;;5002682;28;20457;-67
2022/11/17 00:53:30;;;;;;;;;;;8.20;99.90;;;;;;5027616;28;19920;-67
2022/11/17 00:55:56;;;;;;;;;;;8.30;99.90;;;;;;5043752;28;19974;-67
2022/11/17 00:58:21;;;;;;;;;;;8.20;99.90;;;;;;5032959;28;19998;-67
2022/11/17 01:00:47;;;;;;;;;;;8.20;99.90;;;;;;5044828;28;19944;-67
2022/11/17 01:03:13;;;;;;;;;;;8.20;99.90;;;;;;5020649;28;20361;-67
2022/11/17 01:05:38;;;;;;;;;;;8.20;99.90;;;;;;5027280;28;19953;-66
2022/11/17 01:08:04;;;;;;;;;;;8.20;99.90;;;;;;5003894;28;19932;-67
2022/11/17 01:10:29;;;;;;;;;;;8.20;99.90;;;;;;5025901;28;19925;-66
2022/11/17 01:12:55;;;;;;;;;;;8.30;99.90;;;;;;5014227;28;19963;-66
2022/11/17 01:15:20;;;;;;;;;;;8.30;99.90;;;;;;5014973;28;19925;-67
2022/11/17 01:17:46;;;;;;;;;;;8.20;99.90;;;;;;5023827;28;19928;-66
2022/11/17 01:20:11;;;;;;;;;;;8.30;99.90;;;;;;5014612;28;20358;-67
2022/11/17 01:22:37;;;;;;;;;;;8.20;99.90;;;;;;5024579;28;19938;-66
2022/11/17 01:25:03;;;;;;;;;;;8.30;99.90;;;;;;5017145;28;19921;-67
2022/11/17 01:27:29;;;;;;;;;;;8.30;99.90;;;;;;5032369;28;19928;-67
2022/11/17 01:29:54;;;;;;;;;;;8.30;99.90;;;;;;5049692;28;19933;-67
2022/11/17 01:32:20;;;;;;;;;;;8.30;99.90;;;;;;5048614;28;19929;-66
2022/11/17 01:34:45;;;;;;;;;;;8.30;99.90;;;;;;5030807;28;20429;-67
2022/11/17 01:37:20;;;;;;;;;;;8.40;99.90;;;;;;5036846;28;19929;-67
2022/11/17 01:39:49;;;;;;;;;;;8.40;99.90;;;;;;5025115;28;19921;-67
2022/11/17 01:42:15;;;;;;;;;;;8.40;99.90;;;;;;5029294;28;19925;-67
2022/11/17 01:44:40;;;;;;;;;;;8.40;99.90;;;;;;5026929;28;19928;-66
2022/11/17 01:47:21;;;;;;;;;;;8.40;99.90;;;;;;5023760;28;20407;-66
2022/11/17 01:49:47;;;;;;;;;;;8.40;99.90;;;;;;5024863;28;19936;-66
2022/11/17 01:52:13;;;;;;;;;;;8.30;99.90;;;;;;5026641;28;20004;-67
2022/11/17 01:54:40;;;;;;;;;;;8.30;99.90;;;;;;5016738;28;20051;-67
2022/11/17 01:57:08;;;;;;;;;;;8.30;99.90;;;;;;5042407;28;19925;-67
2022/11/17 01:59:39;;;;;;;;;;;8.40;99.90;;;;;;5029778;28;19925;-66
2022/11/17 02:02:05;;;;;;;;;;;8.30;99.90;;;;;;5014537;28;20395;-68
2022/11/17 02:04:37;;;;;;;;;;;8.40;99.90;;;;;;5024649;28;19928;-66
2022/11/17 02:07:12;;;;;;;;;;;8.30;99.90;;;;;;5034057;28;19983;-67
2022/11/17 02:09:38;;;;;;;;;;;8.40;99.90;;;;;;5039931;28;20298;-66
2022/11/17 02:12:05;;;;;;;;;;;8.30;99.90;;;;;;5028419;28;19932;-66
2022/11/17 02:14:31;;;;;;;;;;;8.30;99.90;;;;;;5027854;28;20389;-66
2022/11/17 02:16:56;;;;;;;;;;;8.40;99.90;;;;;;5030289;28;19967;-67
2022/11/17 02:19:24;;;;;;;;;;;8.30;99.90;;;;;;5027185;28;19968;-67
2022/11/17 02:21:52;;;;;;;;;;;8.30;99.90;;;;;;5008583;28;19921;-67
2022/11/17 02:24:24;;;;;;;;;;;8.30;99.90;;;;;;5027285;28;19932;-66
2022/11/17 02:26:55;;;;;;;;;;;8.20;99.90;;;;;;5055775;28;19951;-66
2022/11/17 02:29:39;;;;;;;;;;;8.40;99.90;;;;;;5027867;28;19925;-66
2022/11/17 02:32:09;;;;;;;;;;;8.30;99.90;;;;;;5044467;28;19932;-66
2022/11/17 02:34:53;;;;;;;;;;;8.30;99.90;;;;;;5035552;28;19928;-66
2022/11/17 02:37:27;;;;;;;;;;;8.20;99.90;;;;;;5043564;28;19925;-66
2022/11/17 02:40:04;;;;;;;;;;;8.10;99.90;;;;;;5030207;28;19925;-66
2022/11/17 02:45:21;;;;;;;;;;;8.20;99.90;;;;;;5021650;28;19925;-67
2022/11/17 02:47:48;;;;;;;;;;;8.20;99.90;;;;;;5052700;28;19966;-66
2022/11/17 02:50:14;;;;;;;;;;;8.10;99.90;;;;;;5019972;28;19994;-66
2022/11/17 02:52:40;;;;;;;;;;;8.00;99.90;;;;;;5022790;28;19960;-66
2022/11/17 02:55:07;;;;;;;;;;;7.90;99.90;;;;;;5038034;28;19971;-67
2022/11/17 02:57:34;;;;;;;;;;;8.00;99.90;;;;;;5003952;28;19922;-66
2022/11/17 03:00:19;;;;;;;;;;;7.90;99.90;;;;;;5050270;28;20390;-66
2022/11/17 03:02:51;;;;;;;;;;;7.90;99.90;;;;;;5032596;28;20011;-65
2022/11/17 03:05:21;;;;;;;;;;;7.80;99.90;;;;;;5022554;28;19927;-65
2022/11/17 03:07:55;;;;;;;;;;;7.80;99.90;;;;;;5038427;28;20248;-65
2022/11/17 03:10:26;;;;;;;;;;;7.80;99.90;;;;;;5036836;28;19931;-65
2022/11/17 03:13:07;;;;;;;;;;;7.70;99.90;;;;;;5036111;28;20439;-65
2022/11/17 03:15:39;;;;;;;;;;;7.60;99.90;;;;;;5031325;28;19936;-65
2022/11/17 03:18:07;;;;;;;;;;;7.60;99.90;;;;;;5048079;28;19929;-65
2022/11/17 03:20:38;;;;;;;;;;;7.60;99.90;;;;;;5048794;28;19925;-65
2022/11/17 03:23:06;;;;;;;;;;;7.60;99.90;;;;;;5048634;28;20285;-65
2022/11/17 03:25:33;;;;;;;;;;;7.60;99.90;;;;;;5024463;28;19921;-65
2022/11/17 03:28:02;;;;;;;;;;;7.70;99.90;;;;;;5044763;28;19928;-64
2022/11/17 03:30:28;;;;;;;;;;;7.60;99.90;;;;;;5044610;28;19925;-64
2022/11/17 03:32:57;;;;;;;;;;;7.60;99.90;;;;;;5026056;28;19975;-65
2022/11/17 03:35:25;;;;;;;;;;;7.60;99.90;;;;;;5039311;28;20012;-65
2022/11/17 03:37:53;;;;;;;;;;;7.60;99.90;;;;;;5024982;28;19996;-64
2022/11/17 03:40:21;;;;;;;;;;;7.60;99.90;;;;;;5020101;28;19931;-64
2022/11/17 03:42:52;;;;;;;;;;;7.50;99.90;;;;;;5048427;28;19932;-65
2022/11/17 03:45:20;;;;;;;;;;;7.50;99.90;;;;;;5044005;28;20378;-64
2022/11/17 03:47:48;;;;;;;;;;;7.60;99.90;;;;;;5045267;28;19956;-65
2022/11/17 03:50:15;;;;;;;;;;;7.50;99.90;;;;;;5020161;28;19959;-64
2022/11/17 03:52:41;;;;;;;;;;;7.50;99.90;;;;;;5023723;28;19921;-64
2022/11/17 03:55:07;;;;;;;;;;;7.50;99.90;;;;;;5044573;28;19928;-65
2022/11/17 03:57:49;;;;;;;;;;;7.40;99.90;;;;;;5032600;28;19925;-64
2022/11/17 04:00:15;;;;;;;;;;;7.40;99.90;;;;;;5039272;28;20366;-64
2022/11/17 04:02:41;;;;;;;;;;;7.50;99.90;;;;;;5044861;28;19925;-64
2022/11/17 04:05:07;;;;;;;;;;;7.50;99.90;;;;;;5015322;28;19921;-64
2022/11/17 04:07:39;;;;;;;;;;;7.40;99.90;;;;;;5044365;28;19921;-65
2022/11/17 04:10:05;;;;;;;;;;;7.40;99.90;;;;;;5022585;28;20016;-65
2022/11/17 04:17:59;;;;;;;;;;;7.30;99.90;;;;;;5025210;28;20355;-65
2022/11/17 04:20:24;;;;;;;;;;;7.30;99.90;;;;;;5022478;28;19939;-64
2022/11/17 04:23:05;;;;;;;;;;;7.30;99.90;;;;;;5040230;28;19940;-65
2022/11/17 04:28:35;;;;;;;;;;;7.30;99.90;;;;;;5032833;28;19956;-66
2022/11/17 04:31:13;;;;;;;;;;;7.30;99.90;;;;;;5044666;28;19972;-65
2022/11/17 04:33:52;;;;;;;;;;;7.20;99.90;;;;;;5009031;28;20020;-64
2022/11/17 04:36:21;;;;;;;;;;;7.30;99.90;;;;;;5041089;28;20499;-64
2022/11/17 04:38:48;;;;;;;;;;;7.30;99.90;;;;;;5021394;28;19928;-64
2022/11/17 04:43:58;;;;;;;;;;;7.30;99.90;;;;;;5042604;28;20299;-64
2022/11/17 04:46:24;;;;;;;;;;;7.20;99.90;;;;;;5036885;28;19932;-65
2022/11/17 04:48:51;;;;;;;;;;;7.20;99.90;;;;;;5041132;28;20243;-64
2022/11/17 04:51:16;;;;;;;;;;;7.10;99.90;;;;;;5037820;28;19929;-64
2022/11/17 04:53:42;;;;;;;;;;;7.20;99.90;;;;;;5032405;28;19976;-64
2022/11/17 04:56:08;;;;;;;;;;;7.10;99.90;;;;;;5044444;28;19974;-64
2022/11/17 04:58:34;;;;;;;;;;;7.10;99.90;;;;;;5019403;28;19921;-65
2022/11/17 05:01:11;;;;;;;;;;;7.10;99.90;;;;;;5034396;28;19929;-65
2022/11/17 05:03:47;;;;;;;;;;;7.00;99.90;;;;;;5022803;28;20000;-64
2022/11/17 05:06:13;;;;;;;;;;;7.10;99.90;;;;;;5048198;28;19920;-65
2022/11/17 05:08:39;;;;;;;;;;;7.00;99.90;;;;;;5046184;28;19928;-65
2022/11/17 05:13:50;;;;;;;;;;;7.00;99.90;;;;;;5042086;28;19925;-65
2022/11/17 05:19:00;;;;;;;;;;;7.00;99.90;;;;;;5037497;28;20351;-65
2022/11/17 05:21:25;;;;;;;;;;;6.90;99.90;;;;;;5016202;28;19928;-65
2022/11/17 05:23:54;;;;;;;;;;;7.00;99.90;;;;;;5016532;28;19933;-65
2022/11/17 05:26:21;;;;;;;;;;;7.00;99.90;;;;;;5039204;28;20252;-65
2022/11/17 05:28:46;;;;;;;;;;;6.90;99.90;;;;;;5032894;28;19931;-65
2022/11/17 05:31:12;;;;;;;;;;;7.00;99.90;;;;;;5043060;28;19925;-65
2022/11/17 05:33:37;;;;;;;;;;;6.90;99.90;;;;;;5024996;28;20008;-65
2022/11/17 05:36:03;;;;;;;;;;;6.90;99.90;;;;;;5037996;28;20414;-65
2022/11/17 05:38:29;;;;;;;;;;;6.90;99.90;;;;;;5039974;28;20011;-65
2022/11/17 05:40:54;;;;;;;;;;;6.90;99.90;;;;;;5005590;28;20347;-65
2022/11/17 05:43:20;;;;;;;;;;;6.80;99.90;;;;;;5041274;28;19928;-66
2022/11/17 05:45:45;;;;;;;;;;;6.90;99.90;;;;;;5008015;28;20008;-65
2022/11/17 05:48:11;;;;;;;;;;;6.80;99.90;;;;;;5026570;28;19929;-65
2022/11/17 05:50:37;;;;;;;;;;;6.80;99.90;;;;;;5024849;28;20379;-65
2022/11/17 05:53:02;;;;;;;;;;;6.80;99.90;;;;;;5023943;28;19979;-66
2022/11/17 05:55:28;;;;;;;;;;;6.80;99.90;;;;;;5041892;28;20302;-65
2022/11/17 05:57:55;;;;;;;;;;;6.80;99.90;;;;;;5021832;28;20020;-65
2022/11/17 06:00:20;;;;;;;;;;;6.80;99.90;;;;;;5020803;28;19967;-65
2022/11/17 06:02:48;;;;;;;;;;;6.70;99.90;;;;;;5041670;28;19972;-65
2022/11/17 06:05:14;;;;;;;;;;;6.80;99.90;;;;;;5044166;28;19925;-65
2022/11/17 06:07:40;;;;;;;;;;;6.80;99.90;;;;;;5047658;28;19927;-65
2022/11/17 06:10:06;;;;;;;;;;;6.80;99.90;;;;;;5026751;28;19929;-65
2022/11/17 06:12:31;;;;;;;;;;;6.70;99.90;;;;;;5030592;28;20401;-65
2022/11/17 06:14:57;;;;;;;;;;;6.70;99.90;;;;;;5021074;28;20284;-65
2022/11/17 06:17:28;;;;;;;;;;;6.60;99.90;;;;;;5024329;28;19929;-65
2022/11/17 06:19:56;;;;;;;;;;;6.80;99.90;;;;;;5046574;28;20394;-65
2022/11/17 06:22:23;;;;;;;;;;;6.60;99.90;;;;;;5023721;28;19979;-65
2022/11/17 06:24:49;;;;;;;;;;;6.60;99.90;;;;;;5029448;28;19932;-65
2022/11/17 06:27:15;;;;;;;;;;;6.60;99.90;;;;;;5043954;28;20271;-65
2022/11/17 06:29:41;;;;;;;;;;;6.60;99.90;;;;;;5046875;28;19921;-65
2022/11/17 06:32:07;;;;;;;;;;;6.50;99.90;;;;;;5045098;28;20008;-65
2022/11/17 06:34:33;;;;;;;;;;;6.70;99.90;;;;;;5043801;28;20337;-65
2022/11/17 06:36:59;;;;;;;;;;;6.60;99.90;;;;;;5029395;28;20386;-65
2022/11/17 06:39:24;;;;;;;;;;;6.70;99.90;;;;;;5023716;28;19925;-65
2022/11/17 06:41:50;;;;;;;;;;;6.60;99.90;;;;;;5027831;28;19924;-66
2022/11/17 06:44:15;;;;;;;;;;;6.60;99.90;;;;;;5036176;28;19967;-66
2022/11/17 06:46:41;;;;;;;;;;;6.60;99.90;;;;;;5042443;28;19936;-65
2022/11/17 06:49:07;;;;;;;;;;;6.70;99.90;;;;;;5043237;28;19925;-65
2022/11/17 06:51:35;;;;;;;;;;;6.70;99.90;;;;;;5041868;28;19926;-66
2022/11/17 06:54:02;;;;;;;;;;;6.60;99.90;;;;;;5029895;28;19925;-65
2022/11/17 06:56:28;;;;;;;;;;;6.60;99.90;;;;;;5009064;28;19978;-65
2022/11/17 06:58:54;;;;;;;;;;;6.70;99.90;;;;;;5050409;28;20329;-65
2022/11/17 07:01:20;;;;;;;;;;;6.80;99.90;;;;;;5033707;28;19921;-66
2022/11/17 07:03:45;;;;;;;;;;;6.70;99.90;;;;;;5023605;28;20266;-67
2022/11/17 07:06:11;;;;;;;;;;;6.60;99.90;;;;;;5037126;28;20036;-67
2022/11/17 07:08:37;;;;;;;;;;;6.60;99.90;;;;;;5026367;28;19924;-66
2022/11/17 07:11:03;;;;;;;;;;;6.60;99.90;;;;;;5022618;28;19961;-67
2022/11/17 07:13:30;;;;;;;;;;;6.60;99.90;;;;;;5042599;28;19944;-66
2022/11/17 07:16:00;;;;;;;;;;;6.60;99.90;;;;;;5026342;28;20370;-67
2022/11/17 07:18:26;;;;;;;;;;;6.70;99.90;;;;;;5023931;28;19921;-67
2022/11/17 07:20:51;;;;;;;;;;;6.70;99.90;;;;;;5030500;28;19932;-67
2022/11/17 07:23:16;;;;;;;;;;;6.60;99.90;;;;;;5026347;28;19933;-67
2022/11/17 07:25:42;;;;;;;;;;;6.60;99.90;;;;;;5023402;28;20271;-67
2022/11/17 07:28:08;;;;;;;;;;;6.70;99.90;;;;;;5035258;28;20047;-67
2022/11/17 07:30:33;;;;;;;;;;;6.70;99.90;;;;;;5023983;28;20023;-66
2022/11/17 07:32:59;;;;;;;;;;;6.70;99.90;;;;;;5025493;28;20578;-66
2022/11/17 07:35:25;;;;;;;;;;;6.80;99.90;;;;;;5011504;28;19932;-66
2022/11/17 07:37:55;;;;;;;;;;;6.70;99.90;;;;;;5021719;28;19924;-67
2022/11/17 07:40:20;;;;;;;;;;;6.60;99.90;;;;;;5025298;28;19921;-67
2022/11/17 07:42:49;;;;;;;;;;;6.50;99.90;;;;;;5003059;28;20444;-67
2022/11/17 07:45:14;;;;;;;;;;;6.60;99.90;;;;;;5016972;28;20028;-67
2022/11/17 07:47:40;;;;;;;;;;;6.70;99.90;;;;;;5039965;28;20025;-66
2022/11/17 07:50:05;;;;;;;;;;;6.70;99.90;;;;;;4999210;28;19979;-66
2022/11/17 07:52:31;;;;;;;;;;;6.70;99.90;;;;;;5016695;28;20313;-66
2022/11/17 07:54:56;;;;;;;;;;;6.80;99.90;;;;;;5035385;28;19928;-66
2022/11/17 07:57:23;;;;;;;;;;;6.70;99.90;;;;;;5037147;28;19927;-66
2022/11/17 07:59:49;;;;;;;;;;;6.70;99.90;;;;;;5023984;28;19924;-66
2022/11/17 08:02:14;;;;;;;;;;;6.70;99.90;;;;;;5018670;28;19932;-66
2022/11/17 08:04:40;;;;;;;;;;;6.70;99.90;;;;;;5018835;28;19927;-66
2022/11/17 08:07:05;;;;;;;;;;;6.70;99.90;;;;;;5041631;28;19974;-66
2022/11/17 08:09:31;;;;;;;;;;;6.70;99.90;;;;;;5019131;28;19920;-66
2022/11/17 08:11:57;;;;;;;;;;;6.70;99.90;;;;;;5025849;28;19982;-66
2022/11/17 08:14:22;;;;;;;;;;;6.60;99.90;;;;;;5042864;28;20079;-66
2022/11/17 08:16:48;;;;;;;;;;;6.70;99.90;;;;;;5041692;28;21607;-66
2022/11/17 08:19:13;;;;;;;;;;;6.70;99.90;;;;;;5018887;28;19921;-66
2022/11/17 08:21:40;;;;;;;;;;;6.80;99.90;;;;;;5025983;28;19939;-66
2022/11/17 08:24:05;;;;;;;;;;;6.80;99.90;;;;;;5024754;28;19947;-66
2022/11/17 08:26:31;;;;;;;;;;;6.80;99.90;;;;;;5028787;28;20531;-66
2022/11/17 08:28:57;;;;;;;;;;;6.80;99.90;;;;;;5052699;28;20346;-66
2022/11/17 08:31:22;;;;;;;;;;;6.80;99.90;;;;;;5041284;28;19929;-65
2022/11/17 08:33:48;;;;;;;;;;;6.70;99.90;;;;;;5024393;28;19921;-66
2022/11/17 08:36:13;;;;;;;;;;;6.80;99.90;;;;;;5037635;28;20120;-65
2022/11/17 08:38:39;;;;;;;;;;;6.70;99.90;;;;;;5023993;28;20343;-66
2022/11/17 08:41:06;;;;;;;;;;;6.80;99.90;;;;;;5023435;28;20356;-66
2022/11/17 08:43:31;;;;;;;;;;;6.80;99.90;;;;;;5047969;28;19925;-66
2022/11/17 08:45:57;;;;;;;;;;;6.80;99.90;;;;;;5017017;28;20276;-66
2022/11/17 08:48:23;;;;;;;;;;;6.80;99.90;;;;;;5033000;28;19940;-66
2022/11/17 08:50:49;;;;;;;;;;;6.80;99.90;;;;;;5038243;28;20346;-66
2022/11/17 08:53:15;;;;;;;;;;;6.80;99.90;;;;;;5042037;28;19936;-65
2022/11/17 08:55:41;;;;;;;;;;;6.80;99.90;;;;;;5034374;28;19921;-65
2022/11/17 08:58:06;;;;;;;;;;;6.80;99.90;;;;;;5032541;28;19999;-65
2022/11/17 09:00:32;;;;;;;;;;;6.70;99.90;;;;;;5034338;28;19921;-65
2022/11/17 09:02:57;;;;;;;;;;;6.80;99.90;;;;;;5033631;28;20354;-65
2022/11/17 09:05:23;;;;;;;;;;;6.80;99.90;;;;;;5036909;28;19932;-65
2022/11/17 09:07:49;;;;;;;;;;;6.80;99.90;;;;;;5044152;28;19968;-66
2022/11/17 09:10:15;;;;;;;;;;;6.70;99.90;;;;;;5038278;28;19968;-65
2022/11/17 09:12:40;;;;;;;;;;;6.70;99.90;;;;;;5027155;28;19932;-67
2022/11/17 09:15:06;;;;;;;;;;;6.70;99.90;;;;;;5049502;28;19925;-67
2022/11/17 09:17:32;;;;;;;;;;;6.70;99.90;;;;;;5045425;28;19959;-67
2022/11/17 09:19:57;;;;;;;;;;;6.80;99.90;;;;;;5046386;28;20012;-67
2022/11/17 09:22:23;;;;;;;;;;;6.80;99.90;;;;;;5036803;28;19924;-67
2022/11/17 09:24:48;;;;;;;;;;;6.80;99.90;;;;;;5025789;28;19928;-67
2022/11/17 09:27:14;;;;;;;;;;;6.70;99.90;;;;;;5025415;28;19979;-67
2022/11/17 09:29:39;;;;;;;;;;;6.80;99.90;;;;;;5040978;28;20030;-67
2022/11/17 09:32:05;;;;;;;;;;;6.70;99.90;;;;;;5040856;28;19978;-66
2022/11/17 09:34:30;;;;;;;;;;;6.80;99.90;;;;;;5029537;28;20633;-66
2022/11/17 09:36:56;;;;;;;;;;;6.80;99.90;;;;;;5032425;28;19921;-66
2022/11/17 09:39:21;;;;;;;;;;;6.80;99.90;;;;;;5038968;28;20000;-66
2022/11/17 09:41:48;;;;;;;;;;;6.90;99.90;;;;;;5056486;28;19959;-66
2022/11/17 09:44:31;;;;;;;;;;;6.90;99.90;;;;;;5026279;28;19947;-66
2022/11/17 09:47:09;;;;;;;;;;;6.90;99.90;;;;;;5045209;28;19927;-66
2022/11/17 09:49:53;;;;;;;;;;;6.90;99.90;;;;;;5040341;28;20286;-66
2022/11/17 09:52:27;;;;;;;;;;;6.90;99.90;;;;;;5050528;28;20358;-66
2022/11/17 09:54:58;;;;;;;;;;;6.90;99.90;;;;;;5052205;28;20345;-66
2022/11/17 09:57:26;;;;;;;;;;;6.90;99.90;;;;;;5047807;28;20394;-66
2022/11/17 10:00:03;;;;;;;;;;;6.80;99.90;;;;;;5042729;28;19967;-66
2022/11/17 10:02:29;;;;;;;;;;;6.90;99.90;;;;;;5037931;28;19921;-66
2022/11/17 10:04:54;;;;;;;;;;;6.80;99.90;;;;;;5047429;28;19931;-66
2022/11/17 10:07:20;;;;;;;;;;;6.80;99.90;;;;;;5046667;28;19946;-66
2022/11/17 10:09:48;;;;;;;;;;;6.80;99.90;;;;;;5032972;28;19928;-66
2022/11/17 10:12:19;;;;;;;;;;;6.80;99.90;;;;;;5051559;28;19948;-66
2022/11/17 10:14:46;;;;;;;;;;;6.70;99.90;;;;;;5037015;28;19925;-66
2022/11/17 10:17:12;;;;;;;;;;;6.80;99.90;;;;;;5042022;28;19936;-66
2022/11/17 10:19:38;;;;;;;;;;;6.70;99.90;;;;;;5041248;28;19925;-66
2022/11/17 10:22:04;;;;;;;;;;;6.80;99.90;;;;;;5048978;28;19922;-66
2022/11/17 10:24:42;;;;;;;;;;;6.90;99.90;;;;;;5039750;28;19921;-66
2022/11/17 10:27:33;;;;;;;;;;;6.90;99.90;;;;;;5027005;28;19955;-66
2022/11/17 10:30:17;;;;;;;;;;;6.90;99.90;;;;;;5039062;28;20381;-66
2022/11/17 10:32:47;;;;;;;;;;;7.00;99.90;;;;;;5050010;28;19921;-66
2022/11/17 10:35:27;;;;;;;;;;;7.00;99.90;;;;;;5049672;28;19924;-67
2022/11/17 10:37:54;;;;;;;;;;;7.00;99.90;;;;;;5050656;28;19921;-66
2022/11/17 10:40:21;;;;;;;;;;;7.00;99.90;;;;;;5043637;28;19921;-66
2022/11/17 10:42:56;;;;;;;;;;;6.90;99.90;;;;;;5019908;28;20359;-66
2022/11/17 10:45:21;;;;;;;;;;;6.90;99.90;;;;;;5043952;28;19927;-66
2022/11/17 10:47:47;;;;;;;;;;;7.00;99.90;;;;;;5046660;28;19921;-66
2022/11/17 10:50:23;;;;;;;;;;;7.00;99.90;;;;;;5043132;28;20376;-66
2022/11/17 10:52:49;;;;;;;;;;;7.00;99.90;;;;;;5024783;28;19924;-66
2022/11/17 10:55:28;;;;;;;;;;;6.90;99.90;;;;;;5050778;28;20015;-66
2022/11/17 10:57:57;;;;;;;;;;;7.00;99.90;;;;;;5039094;28;20319;-66
2022/11/17 11:00:30;;;;;;;;;;;6.90;99.90;;;;;;5053513;28;19920;-66
2022/11/17 11:03:22;;;;;;;;;;;7.00;99.90;;;;;;5032870;28;19921;-66
2022/11/17 11:05:55;;;;;;;;;;;7.10;99.90;;;;;;5050020;28;19972;-66
2022/11/17 11:08:23;;;;;;;;;;;7.00;99.90;;;;;;5052169;28;20380;-66
2022/11/17 11:10:51;;;;;;;;;;;7.00;99.90;;;;;;5041262;28;19925;-65
2022/11/17 11:13:32;;;;;;;;;;;7.00;99.90;;;;;;5025286;28;19943;-66
2022/11/17 11:15:57;;;;;;;;;;;6.90;99.90;;;;;;5040285;28;19974;-66
2022/11/17 11:18:26;;;;;;;;;;;6.90;99.90;;;;;;5007794;28;19929;-66
2022/11/17 11:20:58;;;;;;;;;;;6.90;99.90;;;;;;5051455;28;20312;-66
2022/11/17 11:23:43;;;;;;;;;;;6.90;99.90;;;;;;5028123;28;19931;-66
2022/11/17 11:26:15;;;;;;;;;;;6.90;99.90;;;;;;5031069;28;19921;-66
2022/11/17 11:29:08;;;;;;;;;;;7.00;99.90;;;;;;5045146;28;19924;-66
2022/11/17 11:31:40;;;;;;;;;;;7.10;99.90;;;;;;5024775;28;19925;-66
2022/11/17 11:34:15;;;;;;;;;;;7.00;99.90;;;;;;5043439;28;19928;-66
2022/11/17 11:36:43;;;;;;;;;;;7.00;99.90;;;;;;5030321;28;19928;-66
2022/11/17 11:39:30;;;;;;;;;;;7.00;99.90;;;;;;5026093;28;19928;-66
2022/11/17 11:42:15;;;;;;;;;;;6.90;99.90;;;;;;5043573;28;19991;-66
2022/11/17 11:44:40;;;;;;;;;;;7.00;99.90;;;;;;5047932;28;19920;-66
2022/11/17 11:47:14;;;;;;;;;;;7.00;99.90;;;;;;5053943;28;20257;-66
2022/11/17 11:49:52;;;;;;;;;;;6.90;99.90;;;;;;5034862;28;19964;-66
2022/11/17 11:52:19;;;;;;;;;;;7.00;99.90;;;;;;5050542;28;19928;-66
2022/11/17 11:54:55;;;;;;;;;;;7.10;99.90;;;;;;5050157;28;19947;-66
2022/11/17 11:57:24;;;;;;;;;;;7.20;99.90;;;;;;5038724;28;19928;-66
2022/11/17 11:59:50;;;;;;;;;;;7.10;99.90;;;;;;5044134;28;19996;-66
2022/11/17 12:02:20;;;;;;;;;;;7.10;99.90;;;;;;5052056;28;20453;-66
2022/11/17 12:04:51;;;;;;;;;;;7.10;99.90;;;;;;5048060;28;19929;-66
2022/11/17 12:07:43;;;;;;;;;;;7.10;99.90;;;;;;5045792;28;19921;-67
2022/11/17 12:10:47;;;;;;;;;;;7.20;99.90;;;;;;5028178;28;20012;-67
2022/11/17 12:13:14;;;;;;;;;;;7.10;99.90;;;;;;4976153;28;20429;-67
2022/11/17 12:15:40;;;;;;;;;;;7.10;99.90;;;;;;4976321;28;19922;-67
2022/11/17 12:18:26;;;;;;;;;;;7.10;99.90;;;;;;5013487;28;19928;-67
2022/11/17 12:20:54;;;;;;;;;;;7.10;99.90;;;;;;5040904;28;19976;-64
2022/11/17 12:23:38;;;;;;;;;;;7.20;99.90;;;;;;5020041;28;19964;-65
2022/11/17 12:26:04;;;;;;;;;;;7.10;99.90;;;;;;5045685;28;20014;-65
2022/11/17 12:28:37;;;;;;;;;;;7.10;99.90;;;;;;5053311;28;19984;-65
2022/11/17 12:31:09;;;;;;;;;;;7.10;99.90;;;;;;5051728;28;19932;-65
2022/11/17 12:33:58;;;;;;;;;;;7.10;99.90;;;;;;5031261;28;19925;-65
2022/11/17 12:36:28;;;;;;;;;;;7.10;99.90;;;;;;5044569;28;19959;-65
2022/11/17 12:38:54;;;;;;;;;;;7.20;99.90;;;;;;5070178;22;19973;-64
2022/11/17 12:41:38;;;;;;;;;;;7.20;99.90;;;;;;5046404;28;19959;-66
2022/11/17 12:44:23;;;;;;;;;;;7.20;99.90;;;;;;5053307;28;19939;-66
2022/11/17 12:46:50;;;;;;;;;;;7.20;99.90;;;;;;5059968;28;19928;-66
2022/11/17 12:49:21;;;;;;;;;;;7.20;99.90;;;;;;5055607;28;19928;-66
2022/11/17 12:51:54;;;;;;;;;;;7.20;99.90;;;;;;5050614;28;19935;-66
2022/11/17 12:54:20;;;;;;;;;;;7.20;99.90;;;;;;5057689;28;20019;-66
2022/11/17 12:56:48;;;;;;;;;;;7.20;99.90;;;;;;5064537;28;19967;-66
2022/11/17 12:59:28;;;;;;;;;;;7.30;99.90;;;;;;5055599;28;19960;-66
2022/11/17 13:02:02;;;;;;;;;;;7.40;99.90;;;;;;5063233;28;20413;-66
2022/11/17 13:04:45;;;;;;;;;;;7.50;99.90;;;;;;5065879;28;19929;-65
2022/11/17 13:07:19;;;;;;;;;;;7.40;99.90;;;;;;5068369;28;20409;-66
2022/11/17 13:09:48;;;;;;;;;;;7.40;99.90;;;;;;5060076;28;19931;-66
2022/11/17 13:12:19;;;;;;;;;;;7.40;99.90;;;;;;5064263;28;20488;-66
2022/11/17 13:14:53;;;;;;;;;;;7.50;99.90;;;;;;5055341;28;19955;-66
2022/11/17 13:17:20;;;;;;;;;;;7.50;99.90;;;;;;5068411;28;20305;-66
2022/11/17 13:19:46;;;;;;;;;;;7.60;99.90;;;;;;5066018;28;19924;-66
2022/11/17 13:22:12;;;;;;;;;;;7.60;99.90;;;;;;5063674;28;19927;-66
2022/11/17 13:24:38;;;;;;;;;;;7.50;99.90;;;;;;5055571;28;20340;-66
2022/11/17 13:27:08;;;;;;;;;;;7.60;99.90;;;;;;5053411;28;20079;-66
2022/11/17 13:29:34;;;;;;;;;;;7.60;99.90;;;;;;5054544;28;19943;-65
2022/11/17 13:32:16;;;;;;;;;;;7.60;99.90;;;;;;5047001;28;20370;-66
2022/11/17 13:34:46;;;;;;;;;;;7.60;99.90;;;;;;5051164;28;19925;-66
2022/11/17 13:37:16;;;;;;;;;;;7.70;99.90;;;;;;5053467;28;19929;-66
2022/11/17 13:39:52;;;;;;;;;;;7.70;99.90;;;;;;5053849;28;19921;-66
2022/11/17 13:42:17;;;;;;;;;;;7.70;99.90;;;;;;5058682;28;20277;-65
2022/11/17 13:44:43;;;;;;;;;;;7.80;99.90;;;;;;5062877;28;19921;-65
2022/11/17 13:47:18;;;;;;;;;;;7.80;99.90;;;;;;5056480;28;19920;-66
2022/11/17 13:49:43;;;;;;;;;;;7.90;99.90;;;;;;5040881;28;19967;-66
2022/11/17 13:52:21;;;;;;;;;;;8.00;99.90;;;;;;5046216;28;20007;-66
2022/11/17 13:54:47;;;;;;;;;;;8.00;99.90;;;;;;5048741;28;19970;-66
2022/11/17 13:57:16;;;;;;;;;;;8.00;99.90;;;;;;5068140;28;19962;-65
2022/11/17 13:59:43;;;;;;;;;;;7.90;99.90;;;;;;5047668;28;19928;-65
2022/11/17 14:02:14;;;;;;;;;;;7.80;99.90;;;;;;5050812;28;19921;-65
2022/11/17 14:04:40;;;;;;;;;;;7.70;99.90;;;;;;5047953;28;19928;-65
2022/11/17 14:07:10;;;;;;;;;;;7.60;99.90;;;;;;5061061;28;20322;-65
2022/11/17 14:09:36;;;;;;;;;;;7.60;99.90;;;;;;5051459;28;19924;-65
2022/11/17 14:12:08;;;;;;;;;;;7.60;99.90;;;;;;5055108;28;19925;-65
2022/11/17 14:14:37;;;;;;;;;;;7.60;99.90;;;;;;5041370;28;19921;-65
2022/11/17 14:17:16;;;;;;;;;;;7.60;99.90;;;;;;5052480;28;19928;-65
2022/11/17 14:19:42;;;;;;;;;;;7.60;99.90;;;;;;5057623;28;19925;-65
2022/11/17 14:22:07;;;;;;;;;;;7.60;99.90;;;;;;5052534;28;19921;-65
2022/11/17 14:24:33;;;;;;;;;;;7.60;99.90;;;;;;5054417;28;20058;-65
2022/11/17 14:26:59;;;;;;;;;;;7.50;99.90;;;;;;5060427;28;19921;-66
2022/11/17 14:29:26;;;;;;;;;;;7.60;99.90;;;;;;5057625;28;20060;-66
2022/11/17 14:31:52;;;;;;;;;;;7.50;99.90;;;;;;5062703;28;19931;-66
2022/11/17 14:34:18;;;;;;;;;;;7.50;99.90;;;;;;5054782;28;20282;-66
2022/11/17 14:36:43;;;;;;;;;;;7.60;99.90;;;;;;5063177;28;19924;-66
2022/11/17 14:39:11;;;;;;;;;;;7.60;99.90;;;;;;5052476;28;19931;-66
2022/11/17 14:41:36;;;;;;;;;;;7.60;99.90;;;;;;5056685;28;20370;-66
2022/11/17 14:44:02;;;;;;;;;;;7.60;99.90;;;;;;5047250;28;19927;-66
2022/11/17 14:46:27;;;;;;;;;;;7.60;99.90;;;;;;5054387;28;19968;-66
2022/11/17 14:48:53;;;;;;;;;;;7.60;99.90;;;;;;5054376;28;19921;-66
2022/11/17 14:51:19;;;;;;;;;;;7.60;99.90;;;;;;5049977;28;19925;-66
2022/11/17 14:53:45;;;;;;;;;;;7.60;99.90;;;;;;5046397;28;19964;-66
2022/11/17 14:56:12;;;;;;;;;;;7.60;99.90;;;;;;5045726;28;20005;-66
2022/11/17 14:58:38;;;;;;;;;;;7.60;99.90;;;;;;5047456;28;20020;-66
2022/11/17 15:01:10;;;;;;;;;;;7.60;99.90;;;;;;5063684;28;20022;-66
2022/11/17 15:03:36;;;;;;;;;;;7.60;99.90;;;;;;5055836;28;19942;-66
2022/11/17 15:06:06;;;;;;;;;;;7.70;99.90;;;;;;5049946;28;19944;-66
2022/11/17 15:08:31;;;;;;;;;;;7.70;99.90;;;;;;5046760;28;19975;-66